sensor_id;sensor_type;location;lat;lon;timestamp;pressure;altitude;pressure_sealevel;temperature;humidity
22333;BME280;11334;36.986;-121.936;2023-04-02T00:00:17;101730.53;;;25.22;32.89
22333;BME280;11334;36.986;-121.936;2023-04-02T00:07:52;101724.59;;;25.31;32.55
22333;BME280;11334;36.986;-121.936;2023-04-02T00:10:33;101721.94;;;25.25;33.80
22333;BME280;11334;36.986;-121.936;2023-04-02T00:13:04;101713.38;;;24.92;34.57
22333;BME280;11334;36.986;-121.936;2023-04-02T00:15:32;101707.41;;;25.19;34.37
22333;BME280;11334;36.986;-121.936;2023-04-02T00:17:59;101710.81;;;25.62;32.93
22333;BME280;11334;36.986;-121.936;2023-04-02T00:20:27;101714.38;;;26.54;32.31
22333;BME280;11334;36.986;-121.936;2023-04-02T00:22:55;101687.13;;;27.50;30.95
22333;BME280;11334;36.986;-121.936;2023-04-02T00:25:26;101702.56;;;28.64;29.22
22333;BME280;11334;36.986;-121.936;2023-04-02T00:27:54;101698.81;;;29.71;27.64
22333;BME280;11334;36.986;-121.936;2023-04-02T00:30:21;101687.63;;;30.71;26.43
22333;BME280;11334;36.986;-121.936;2023-04-02T00:32:47;101693.09;;;31.77;25.66
22333;BME280;11334;36.986;-121.936;2023-04-02T00:35:25;101688.19;;;32.78;24.90
22333;BME280;11334;36.986;-121.936;2023-04-02T00:37:52;101680.75;;;33.50;23.70
22333;BME280;11334;36.986;-121.936;2023-04-02T00:40:27;101694.97;;;34.43;22.62
22333;BME280;11334;36.986;-121.936;2023-04-02T00:42:58;101687.94;;;35.11;22.39
22333;BME280;11334;36.986;-121.936;2023-04-02T00:45:29;101689.53;;;35.77;22.13
22333;BME280;11334;36.986;-121.936;2023-04-02T00:47:59;101683.28;;;36.08;20.89
22333;BME280;11334;36.986;-121.936;2023-04-02T00:50:31;101689.81;;;36.30;20.46
22333;BME280;11334;36.986;-121.936;2023-04-02T00:53:04;101683.75;;;36.28;20.87
22333;BME280;11334;36.986;-121.936;2023-04-02T00:55:44;101688.13;;;36.47;21.02
22333;BME280;11334;36.986;-121.936;2023-04-02T00:58:34;101686.75;;;36.76;20.71
22333;BME280;11334;36.986;-121.936;2023-04-02T01:01:02;101684.03;;;37.03;20.65
22333;BME280;11334;36.986;-121.936;2023-04-02T01:03:32;101677.69;;;37.29;20.81
22333;BME280;11334;36.986;-121.936;2023-04-02T01:06:11;101681.25;;;37.56;20.15
22333;BME280;11334;36.986;-121.936;2023-04-02T01:14:31;101678.53;;;37.99;18.36
22333;BME280;11334;36.986;-121.936;2023-04-02T01:19:57;101677.84;;;37.59;19.88
22333;BME280;11334;36.986;-121.936;2023-04-02T01:25:06;101685.69;;;35.55;21.67
22333;BME280;11334;36.986;-121.936;2023-04-02T01:27:42;101689.03;;;34.31;22.52
22333;BME280;11334;36.986;-121.936;2023-04-02T01:30:11;101684.53;;;33.07;23.66
22333;BME280;11334;36.986;-121.936;2023-04-02T01:32:39;101668.94;;;31.74;24.73
22333;BME280;11334;36.986;-121.936;2023-04-02T01:35:08;101678.44;;;30.82;25.67
22333;BME280;11334;36.986;-121.936;2023-04-02T01:37:45;101689.22;;;29.95;26.34
22333;BME280;11334;36.986;-121.936;2023-04-02T01:43:45;101677.47;;;27.86;30.21
22333;BME280;11334;36.986;-121.936;2023-04-02T01:46:32;101685.28;;;26.89;32.90
22333;BME280;11334;36.986;-121.936;2023-04-02T01:49:01;101682.31;;;26.34;33.61
22333;BME280;11334;36.986;-121.936;2023-04-02T01:51:33;101680.81;;;25.86;35.77
22333;BME280;11334;36.986;-121.936;2023-04-02T01:54:03;101687.94;;;25.22;37.27
22333;BME280;11334;36.986;-121.936;2023-04-02T01:56:29;101692.75;;;24.67;38.49
22333;BME280;11334;36.986;-121.936;2023-04-02T01:58:57;101684.78;;;24.30;39.46
22333;BME280;11334;36.986;-121.936;2023-04-02T02:01:30;101692.19;;;23.86;40.77
22333;BME280;11334;36.986;-121.936;2023-04-02T02:03:58;101667.28;;;23.35;41.04
22333;BME280;11334;36.986;-121.936;2023-04-02T02:06:24;101682.16;;;23.19;42.14
22333;BME280;11334;36.986;-121.936;2023-04-02T02:08:55;101684.34;;;22.92;43.07
22333;BME280;11334;36.986;-121.936;2023-04-02T02:11:26;101689.00;;;22.47;44.40
22333;BME280;11334;36.986;-121.936;2023-04-02T02:16:25;101693.13;;;21.85;47.03
22333;BME280;11334;36.986;-121.936;2023-04-02T02:18:58;101688.72;;;21.58;48.37
22333;BME280;11334;36.986;-121.936;2023-04-02T02:21:47;101688.44;;;21.34;49.11
22333;BME280;11334;36.986;-121.936;2023-04-02T02:24:25;101689.19;;;21.16;50.09
22333;BME280;11334;36.986;-121.936;2023-04-02T02:29:30;101688.94;;;20.64;52.66
22333;BME280;11334;36.986;-121.936;2023-04-02T02:32:01;101688.06;;;20.58;53.46
22333;BME280;11334;36.986;-121.936;2023-04-02T02:34:35;101683.59;;;20.44;54.08
22333;BME280;11334;36.986;-121.936;2023-04-02T02:37:09;101692.16;;;20.27;55.16
22333;BME280;11334;36.986;-121.936;2023-04-02T02:39:41;101690.97;;;20.08;55.18
22333;BME280;11334;36.986;-121.936;2023-04-02T02:44:51;101696.09;;;19.62;57.84
22333;BME280;11334;36.986;-121.936;2023-04-02T02:47:27;101699.28;;;19.51;57.44
22333;BME280;11334;36.986;-121.936;2023-04-02T02:49:56;101703.16;;;19.28;58.03
22333;BME280;11334;36.986;-121.936;2023-04-02T02:52:34;101710.69;;;19.04;57.84
22333;BME280;11334;36.986;-121.936;2023-04-02T02:55:08;101709.50;;;18.92;58.43
22333;BME280;11334;36.986;-121.936;2023-04-02T02:57:41;101690.69;;;18.64;58.17
22333;BME280;11334;36.986;-121.936;2023-04-02T03:00:10;101712.44;;;18.68;57.45
22333;BME280;11334;36.986;-121.936;2023-04-02T03:02:39;101707.25;;;18.53;57.42
22333;BME280;11334;36.986;-121.936;2023-04-02T03:05:06;101703.34;;;18.27;57.35
22333;BME280;11334;36.986;-121.936;2023-04-02T03:07:34;101718.69;;;18.33;56.31
22333;BME280;11334;36.986;-121.936;2023-04-02T03:10:11;101723.28;;;18.10;57.00
22333;BME280;11334;36.986;-121.936;2023-04-02T03:13:04;101728.47;;;18.11;57.42
22333;BME280;11334;36.986;-121.936;2023-04-02T03:18:28;101733.03;;;18.03;55.52
22333;BME280;11334;36.986;-121.936;2023-04-02T03:21:12;101731.47;;;17.86;55.49
22333;BME280;11334;36.986;-121.936;2023-04-02T03:24:08;101740.53;;;17.85;54.66
22333;BME280;11334;36.986;-121.936;2023-04-02T03:26:49;101734.44;;;17.69;56.02
22333;BME280;11334;36.986;-121.936;2023-04-02T03:29:26;101744.84;;;17.72;55.49
22333;BME280;11334;36.986;-121.936;2023-04-02T03:32:25;101754.59;;;17.65;56.88
22333;BME280;11334;36.986;-121.936;2023-04-02T03:35:00;101750.03;;;17.43;57.06
22333;BME280;11334;36.986;-121.936;2023-04-02T03:37:37;101756.31;;;17.28;58.20
22333;BME280;11334;36.986;-121.936;2023-04-02T03:40:27;101759.19;;;17.19;59.07
22333;BME280;11334;36.986;-121.936;2023-04-02T03:43:14;101743.84;;;16.97;60.13
22333;BME280;11334;36.986;-121.936;2023-04-02T03:45:48;101761.78;;;16.97;60.37
22333;BME280;11334;36.986;-121.936;2023-04-02T03:48:26;101764.63;;;16.87;60.66
22333;BME280;11334;36.986;-121.936;2023-04-02T03:50:59;101771.03;;;16.78;60.90
22333;BME280;11334;36.986;-121.936;2023-04-02T03:53:29;101755.66;;;16.65;60.95
22333;BME280;11334;36.986;-121.936;2023-04-02T03:55:57;101772.91;;;16.62;62.75
22333;BME280;11334;36.986;-121.936;2023-04-02T04:01:04;101784.47;;;16.39;63.77
22333;BME280;11334;36.986;-121.936;2023-04-02T04:04:01;101785.81;;;16.35;63.56
22333;BME280;11334;36.986;-121.936;2023-04-02T04:06:31;101783.84;;;16.13;64.22
22333;BME280;11334;36.986;-121.936;2023-04-02T04:11:47;101800.16;;;16.03;66.10
22333;BME280;11334;36.986;-121.936;2023-04-02T04:17:01;101803.66;;;15.87;66.92
22333;BME280;11334;36.986;-121.936;2023-04-02T04:22:18;101811.81;;;15.78;66.47
22333;BME280;11334;36.986;-121.936;2023-04-02T04:25:06;101814.78;;;15.67;67.27
22333;BME280;11334;36.986;-121.936;2023-04-02T04:31:37;101831.09;;;15.56;68.91
22333;BME280;11334;36.986;-121.936;2023-04-02T04:33:45;101838.13;;;15.49;68.65
22333;BME280;11334;36.986;-121.936;2023-04-02T04:39:39;101840.19;;;15.30;69.33
22333;BME280;11334;36.986;-121.936;2023-04-02T04:42:06;101838.84;;;15.26;69.37
22333;BME280;11334;36.986;-121.936;2023-04-02T04:44:55;101812.47;;;14.98;70.26
22333;BME280;11334;36.986;-121.936;2023-04-02T04:47:41;101827.13;;;14.94;70.56
22333;BME280;11334;36.986;-121.936;2023-04-02T04:50:18;101838.16;;;14.99;70.42
22333;BME280;11334;36.986;-121.936;2023-04-02T04:52:48;101850.56;;;15.08;69.06
22333;BME280;11334;36.986;-121.936;2023-04-02T04:55:47;101844.88;;;15.03;70.03
22333;BME280;11334;36.986;-121.936;2023-04-02T04:58:22;101852.41;;;14.83;71.92
22333;BME280;11334;36.986;-121.936;2023-04-02T05:00:55;101851.97;;;14.70;72.75
22333;BME280;11334;36.986;-121.936;2023-04-02T05:06:48;101858.81;;;14.72;71.73
22333;BME280;11334;36.986;-121.936;2023-04-02T05:08:54;101853.63;;;14.63;72.55
22333;BME280;11334;36.986;-121.936;2023-04-02T05:11:28;101858.19;;;14.53;73.46
22333;BME280;11334;36.986;-121.936;2023-04-02T05:14:05;101860.94;;;14.44;73.93
22333;BME280;11334;36.986;-121.936;2023-04-02T05:16:39;101876.13;;;14.26;75.70
22333;BME280;11334;36.986;-121.936;2023-04-02T05:19:11;101871.84;;;14.33;75.53
22333;BME280;11334;36.986;-121.936;2023-04-02T05:27:45;101871.69;;;14.17;75.61
22333;BME280;11334;36.986;-121.936;2023-04-02T05:30:46;101877.53;;;14.21;74.84
22333;BME280;11334;36.986;-121.936;2023-04-02T05:33:28;101871.19;;;14.14;75.66
22333;BME280;11334;36.986;-121.936;2023-04-02T05:36:00;101879.16;;;14.14;75.42
22333;BME280;11334;36.986;-121.936;2023-04-02T05:38:32;101875.03;;;14.02;76.29
22333;BME280;11334;36.986;-121.936;2023-04-02T05:46:45;101870.66;;;13.84;77.57
22333;BME280;11334;36.986;-121.936;2023-04-02T05:49:33;101872.84;;;13.88;76.91
22333;BME280;11334;36.986;-121.936;2023-04-02T05:52:07;101864.94;;;13.79;77.53
22333;BME280;11334;36.986;-121.936;2023-04-02T05:57:35;101870.22;;;13.61;78.55
22333;BME280;11334;36.986;-121.936;2023-04-02T06:00:06;101875.97;;;13.66;78.19
22333;BME280;11334;36.986;-121.936;2023-04-02T06:02:37;101868.53;;;13.60;78.06
22333;BME280;11334;36.986;-121.936;2023-04-02T06:05:15;101873.34;;;13.57;77.88
22333;BME280;11334;36.986;-121.936;2023-04-02T06:11:01;101873.28;;;13.40;79.19
22333;BME280;11334;36.986;-121.936;2023-04-02T06:13:29;101870.78;;;13.29;79.94
22333;BME280;11334;36.986;-121.936;2023-04-02T06:15:55;101866.16;;;13.31;79.37
22333;BME280;11334;36.986;-121.936;2023-04-02T06:18:30;101854.31;;;13.16;80.48
22333;BME280;11334;36.986;-121.936;2023-04-02T06:20:58;101854.63;;;13.13;80.04
22333;BME280;11334;36.986;-121.936;2023-04-02T06:26:06;101849.59;;;13.10;80.50
22333;BME280;11334;36.986;-121.936;2023-04-02T06:28:45;101861.00;;;12.94;81.04
22333;BME280;11334;36.986;-121.936;2023-04-02T06:31:37;101855.66;;;13.03;81.06
22333;BME280;11334;36.986;-121.936;2023-04-02T06:34:13;101856.47;;;13.03;80.58
22333;BME280;11334;36.986;-121.936;2023-04-02T06:36:41;101860.16;;;12.93;80.79
22333;BME280;11334;36.986;-121.936;2023-04-02T06:39:14;101855.25;;;12.89;81.42
22333;BME280;11334;36.986;-121.936;2023-04-02T06:41:42;101856.53;;;12.85;82.44
22333;BME280;11334;36.986;-121.936;2023-04-02T06:44:16;101855.16;;;12.81;82.54
22333;BME280;11334;36.986;-121.936;2023-04-02T06:49:38;101850.66;;;12.72;81.87
22333;BME280;11334;36.986;-121.936;2023-04-02T06:52:24;101844.25;;;12.56;82.84
22333;BME280;11334;36.986;-121.936;2023-04-02T06:54:52;101825.84;;;12.35;83.88
22333;BME280;11334;36.986;-121.936;2023-04-02T06:57:19;101839.94;;;12.36;84.50
22333;BME280;11334;36.986;-121.936;2023-04-02T06:59:45;101847.63;;;12.30;85.76
22333;BME280;11334;36.986;-121.936;2023-04-02T07:04:46;101839.38;;;12.32;84.79
22333;BME280;11334;36.986;-121.936;2023-04-02T07:07:13;101846.22;;;12.35;83.97
22333;BME280;11334;36.986;-121.936;2023-04-02T07:09:39;101842.75;;;12.34;84.46
22333;BME280;11334;36.986;-121.936;2023-04-02T07:12:13;101852.94;;;12.30;84.72
22333;BME280;11334;36.986;-121.936;2023-04-02T07:14:39;101832.69;;;12.10;85.47
22333;BME280;11334;36.986;-121.936;2023-04-02T07:17:05;101822.63;;;12.13;84.76
22333;BME280;11334;36.986;-121.936;2023-04-02T07:19:32;101844.72;;;12.23;85.54
22333;BME280;11334;36.986;-121.936;2023-04-02T07:21:58;101836.03;;;12.12;85.87
22333;BME280;11334;36.986;-121.936;2023-04-02T07:24:24;101830.03;;;11.91;87.04
22333;BME280;11334;36.986;-121.936;2023-04-02T07:26:50;101834.47;;;11.91;87.80
22333;BME280;11334;36.986;-121.936;2023-04-02T07:29:17;101826.53;;;11.81;88.12
22333;BME280;11334;36.986;-121.936;2023-04-02T07:31:44;101824.97;;;11.88;88.13
22333;BME280;11334;36.986;-121.936;2023-04-02T07:34:10;101831.41;;;11.86;87.74
22333;BME280;11334;36.986;-121.936;2023-04-02T07:36:37;101827.91;;;11.76;88.40
22333;BME280;11334;36.986;-121.936;2023-04-02T07:39:03;101825.66;;;11.81;87.35
22333;BME280;11334;36.986;-121.936;2023-04-02T07:41:29;101835.03;;;11.85;87.81
22333;BME280;11334;36.986;-121.936;2023-04-02T07:43:56;101829.44;;;11.88;87.58
22333;BME280;11334;36.986;-121.936;2023-04-02T07:46:22;101827.78;;;11.77;88.21
22333;BME280;11334;36.986;-121.936;2023-04-02T07:48:49;101833.63;;;11.81;87.94
22333;BME280;11334;36.986;-121.936;2023-04-02T07:51:20;101838.09;;;11.80;87.95
22333;BME280;11334;36.986;-121.936;2023-04-02T07:53:47;101838.81;;;11.82;87.99
22333;BME280;11334;36.986;-121.936;2023-04-02T07:56:21;101836.88;;;11.84;87.34
22333;BME280;11334;36.986;-121.936;2023-04-02T07:58:48;101828.31;;;11.81;86.92
22333;BME280;11334;36.986;-121.936;2023-04-02T08:01:20;101832.78;;;11.80;87.09
22333;BME280;11334;36.986;-121.936;2023-04-02T08:03:48;101824.69;;;11.72;87.94
22333;BME280;11334;36.986;-121.936;2023-04-02T08:06:15;101842.16;;;11.75;87.68
22333;BME280;11334;36.986;-121.936;2023-04-02T08:08:42;101834.19;;;11.75;88.30
22333;BME280;11334;36.986;-121.936;2023-04-02T08:11:09;101842.88;;;11.77;88.59
22333;BME280;11334;36.986;-121.936;2023-04-02T08:13:35;101838.69;;;11.84;88.23
22333;BME280;11334;36.986;-121.936;2023-04-02T08:16:02;101852.22;;;11.81;89.14
22333;BME280;11334;36.986;-121.936;2023-04-02T08:18:29;101854.63;;;11.84;89.15
22333;BME280;11334;36.986;-121.936;2023-04-02T08:20:56;101846.34;;;11.77;89.98
22333;BME280;11334;36.986;-121.936;2023-04-02T08:23:23;101842.59;;;11.89;89.37
22333;BME280;11334;36.986;-121.936;2023-04-02T08:25:50;101841.88;;;11.78;90.63
22333;BME280;11334;36.986;-121.936;2023-04-02T08:28:16;101840.63;;;11.82;90.24
22333;BME280;11334;36.986;-121.936;2023-04-02T08:30:43;101837.00;;;11.83;90.80
22333;BME280;11334;36.986;-121.936;2023-04-02T08:33:09;101840.63;;;11.82;91.03
22333;BME280;11334;36.986;-121.936;2023-04-02T08:35:36;101832.94;;;11.88;91.02
22333;BME280;11334;36.986;-121.936;2023-04-02T08:38:02;101837.28;;;11.89;91.16
22333;BME280;11334;36.986;-121.936;2023-04-02T08:40:33;101832.81;;;11.90;91.78
22333;BME280;11334;36.986;-121.936;2023-04-02T08:46:22;101833.66;;;11.99;91.91
22333;BME280;11334;36.986;-121.936;2023-04-02T08:48:21;101839.38;;;11.95;91.99
22333;BME280;11334;36.986;-121.936;2023-04-02T08:50:49;101838.25;;;11.98;92.29
22333;BME280;11334;36.986;-121.936;2023-04-02T08:53:29;101829.06;;;12.01;92.54
22333;BME280;11334;36.986;-121.936;2023-04-02T08:56:21;101821.91;;;12.02;93.12
22333;BME280;11334;36.986;-121.936;2023-04-02T08:58:53;101827.66;;;12.07;93.31
22333;BME280;11334;36.986;-121.936;2023-04-02T09:01:42;101819.56;;;12.08;93.32
22333;BME280;11334;36.986;-121.936;2023-04-02T09:04:16;101817.84;;;12.07;94.32
22333;BME280;11334;36.986;-121.936;2023-04-02T09:06:44;101810.19;;;12.14;94.33
22333;BME280;11334;36.986;-121.936;2023-04-02T09:09:12;101797.84;;;12.22;93.91
22333;BME280;11334;36.986;-121.936;2023-04-02T09:11:47;101801.63;;;12.29;93.01
22333;BME280;11334;36.986;-121.936;2023-04-02T09:14:43;101794.91;;;12.25;93.41
22333;BME280;11334;36.986;-121.936;2023-04-02T09:17:22;101798.69;;;12.23;94.50
22333;BME280;11334;36.986;-121.936;2023-04-02T09:22:33;101797.72;;;12.33;93.85
22333;BME280;11334;36.986;-121.936;2023-04-02T09:25:02;101796.59;;;12.35;92.90
22333;BME280;11334;36.986;-121.936;2023-04-02T09:27:32;101779.66;;;12.36;92.56
22333;BME280;11334;36.986;-121.936;2023-04-02T09:32:57;101780.66;;;12.35;93.49
22333;BME280;11334;36.986;-121.936;2023-04-02T09:35:29;101782.19;;;12.38;93.60
22333;BME280;11334;36.986;-121.936;2023-04-02T09:38:16;101758.28;;;12.19;93.83
22333;BME280;11334;36.986;-121.936;2023-04-02T09:43:43;101762.59;;;12.30;92.72
22333;BME280;11334;36.986;-121.936;2023-04-02T09:48:48;101774.06;;;12.30;93.26
22333;BME280;11334;36.986;-121.936;2023-04-02T09:51:20;101768.63;;;12.31;92.84
22333;BME280;11334;36.986;-121.936;2023-04-02T09:54:06;101765.66;;;12.34;92.63
22333;BME280;11334;36.986;-121.936;2023-04-02T09:56:38;101767.91;;;12.39;91.75
22333;BME280;11334;36.986;-121.936;2023-04-02T09:59:17;101771.28;;;12.31;92.38
22333;BME280;11334;36.986;-121.936;2023-04-02T10:07:04;101756.06;;;12.15;93.89
22333;BME280;11334;36.986;-121.936;2023-04-02T10:09:33;101754.81;;;12.09;93.94
22333;BME280;11334;36.986;-121.936;2023-04-02T10:12:04;101758.31;;;12.10;93.74
22333;BME280;11334;36.986;-121.936;2023-04-02T10:14:36;101765.44;;;12.09;93.63
22333;BME280;11334;36.986;-121.936;2023-04-02T10:17:15;101770.22;;;12.06;94.46
22333;BME280;11334;36.986;-121.936;2023-04-02T10:19:47;101767.38;;;12.07;94.01
22333;BME280;11334;36.986;-121.936;2023-04-02T10:22:18;101765.44;;;12.09;93.94
22333;BME280;11334;36.986;-121.936;2023-04-02T10:24:46;101755.34;;;12.13;93.52
22333;BME280;11334;36.986;-121.936;2023-04-02T10:27:41;101758.16;;;12.11;93.59
22333;BME280;11334;36.986;-121.936;2023-04-02T10:30:19;101753.41;;;12.05;93.39
22333;BME280;11334;36.986;-121.936;2023-04-02T10:33:29;101747.84;;;12.08;93.60
22333;BME280;11334;36.986;-121.936;2023-04-02T10:36:06;101745.88;;;12.01;94.18
22333;BME280;11334;36.986;-121.936;2023-04-02T10:52:25;101733.84;;;11.88;95.06
22333;BME280;11334;36.986;-121.936;2023-04-02T10:54:57;101735.13;;;11.84;95.17
22333;BME280;11334;36.986;-121.936;2023-04-02T11:03:05;101720.44;;;11.80;94.49
22333;BME280;11334;36.986;-121.936;2023-04-02T11:05:50;101716.84;;;11.71;95.12
22333;BME280;11334;36.986;-121.936;2023-04-02T11:08:24;101722.41;;;11.68;94.42
22333;BME280;11334;36.986;-121.936;2023-04-02T11:11:25;101715.44;;;11.68;94.04
22333;BME280;11334;36.986;-121.936;2023-04-02T11:14:13;101714.59;;;11.67;94.13
22333;BME280;11334;36.986;-121.936;2023-04-02T11:16:41;101714.19;;;11.62;94.80
22333;BME280;11334;36.986;-121.936;2023-04-02T11:29:41;101712.66;;;11.60;94.34
22333;BME280;11334;36.986;-121.936;2023-04-02T11:42:49;101709.41;;;11.56;95.41
22333;BME280;11334;36.986;-121.936;2023-04-02T11:50:37;101702.56;;;11.63;95.35
22333;BME280;11334;36.986;-121.936;2023-04-02T11:55:38;101697.41;;;11.62;95.80
22333;BME280;11334;36.986;-121.936;2023-04-02T12:06:26;101710.81;;;11.60;97.67
22333;BME280;11334;36.986;-121.936;2023-04-02T12:11:47;101703.69;;;11.61;98.58
22333;BME280;11334;36.986;-121.936;2023-04-02T12:22:39;101709.13;;;11.78;98.49
22333;BME280;11334;36.986;-121.936;2023-04-02T12:28:23;101708.44;;;11.76;99.30
22333;BME280;11334;36.986;-121.936;2023-04-02T12:30:50;101721.56;;;11.77;99.64
22333;BME280;11334;36.986;-121.936;2023-04-02T12:33:35;101717.38;;;11.84;99.78
22333;BME280;11334;36.986;-121.936;2023-04-02T12:36:05;101703.69;;;11.79;99.61
22333;BME280;11334;36.986;-121.936;2023-04-02T12:38:35;101724.22;;;11.87;99.20
22333;BME280;11334;36.986;-121.936;2023-04-02T12:44:00;101725.75;;;11.80;100.00
22333;BME280;11334;36.986;-121.936;2023-04-02T12:46:28;101706.34;;;11.70;100.00
22333;BME280;11334;36.986;-121.936;2023-04-02T12:49:04;101722.53;;;11.86;100.00
22333;BME280;11334;36.986;-121.936;2023-04-02T12:51:34;101730.25;;;11.89;100.00
22333;BME280;11334;36.986;-121.936;2023-04-02T12:54:01;101730.50;;;11.95;100.00
22333;BME280;11334;36.986;-121.936;2023-04-02T12:56:28;101733.28;;;12.03;100.00
22333;BME280;11334;36.986;-121.936;2023-04-02T12:58:56;101732.84;;;12.17;98.57
22333;BME280;11334;36.986;-121.936;2023-04-02T13:01:25;101731.19;;;12.16;98.84
22333;BME280;11334;36.986;-121.936;2023-04-02T13:04:11;101716.25;;;11.96;100.00
22333;BME280;11334;36.986;-121.936;2023-04-02T13:06:38;101730.50;;;11.95;100.00
22333;BME280;11334;36.986;-121.936;2023-04-02T13:09:24;101711.09;;;11.85;100.00
22333;BME280;11334;36.986;-121.936;2023-04-02T13:11:51;101710.53;;;11.82;100.00
22333;BME280;11334;36.986;-121.936;2023-04-02T13:14:19;101725.19;;;11.95;100.00
22333;BME280;11334;36.986;-121.936;2023-04-02T13:16:46;101718.91;;;11.96;100.00
22333;BME280;11334;36.986;-121.936;2023-04-02T13:21:43;101713.75;;;11.85;100.00
22333;BME280;11334;36.986;-121.936;2023-04-02T13:24:18;101701.59;;;11.73;100.00
22333;BME280;11334;36.986;-121.936;2023-04-02T13:26:45;101708.28;;;11.87;100.00
22333;BME280;11334;36.986;-121.936;2023-04-02T13:29:28;101721.41;;;11.88;100.00
22333;BME280;11334;36.986;-121.936;2023-04-02T13:31:58;101720.03;;;11.84;100.00
22333;BME280;11334;36.986;-121.936;2023-04-02T13:34:24;101732.63;;;11.82;100.00
22333;BME280;11334;36.986;-121.936;2023-04-02T13:36:51;101720.03;;;11.84;100.00
22333;BME280;11334;36.986;-121.936;2023-04-02T13:39:17;101691.94;;;11.72;100.00
22333;BME280;11334;36.986;-121.936;2023-04-02T13:41:50;101714.84;;;11.83;100.00
22333;BME280;11334;36.986;-121.936;2023-04-02T13:44:21;101722.81;;;11.83;100.00
22333;BME280;11334;36.986;-121.936;2023-04-02T13:46:48;101715.69;;;11.83;100.00
22333;BME280;11334;36.986;-121.936;2023-04-02T13:49:14;101720.88;;;11.85;100.00
22333;BME280;11334;36.986;-121.936;2023-04-02T13:51:48;101721.41;;;11.88;100.00
22333;BME280;11334;36.986;-121.936;2023-04-02T13:55:02;101721.69;;;11.85;100.00
22333;BME280;11334;36.986;-121.936;2023-04-02T13:57:09;101728.72;;;11.86;100.00
22333;BME280;11334;36.986;-121.936;2023-04-02T13:59:36;101729.53;;;11.87;100.00
22333;BME280;11334;36.986;-121.936;2023-04-02T14:02:11;101728.28;;;11.81;100.00
22333;BME280;11334;36.986;-121.936;2023-04-02T14:04:46;101733.31;;;11.75;100.00
22333;BME280;11334;36.986;-121.936;2023-04-02T14:10:17;101735.97;;;11.84;100.00
22333;BME280;11334;36.986;-121.936;2023-04-02T14:29:28;101755.09;;;12.06;100.00
22333;BME280;11334;36.986;-121.936;2023-04-02T14:32:08;101755.09;;;12.06;100.00
22333;BME280;11334;36.986;-121.936;2023-04-02T14:34:57;101759.59;;;12.06;100.00
22333;BME280;11334;36.986;-121.936;2023-04-02T14:43:07;101766.28;;;12.10;100.00
22333;BME280;11334;36.986;-121.936;2023-04-02T14:48:42;101768.50;;;12.24;100.00
22333;BME280;11334;36.986;-121.936;2023-04-02T14:51:43;101775.63;;;12.23;100.00
22333;BME280;11334;36.986;-121.936;2023-04-02T14:56:49;101778.97;;;12.34;100.00
22333;BME280;11334;36.986;-121.936;2023-04-02T15:02:28;101771.56;;;12.38;100.00
22333;BME280;11334;36.986;-121.936;2023-04-02T15:05:23;101751.41;;;12.35;100.00
22333;BME280;11334;36.986;-121.936;2023-04-02T15:07:58;101766.91;;;12.49;100.00
22333;BME280;11334;36.986;-121.936;2023-04-02T15:10:53;101766.34;;;12.55;100.00
22333;BME280;11334;36.986;-121.936;2023-04-02T15:13:26;101767.72;;;12.59;100.00
22333;BME280;11334;36.986;-121.936;2023-04-02T15:16:07;101764.91;;;12.61;100.00
22333;BME280;11334;36.986;-121.936;2023-04-02T15:18:34;101769.94;;;12.63;100.00
22333;BME280;11334;36.986;-121.936;2023-04-02T15:21:13;101772.84;;;12.70;100.00
22333;BME280;11334;36.986;-121.936;2023-04-02T15:24:21;101781.38;;;12.73;100.00
22333;BME280;11334;36.986;-121.936;2023-04-02T15:27:19;101772.53;;;12.82;100.00
22333;BME280;11334;36.986;-121.936;2023-04-02T15:29:59;101777.28;;;12.88;100.00
22333;BME280;11334;36.986;-121.936;2023-04-02T15:35:37;101781.69;;;13.06;100.00
22333;BME280;11334;36.986;-121.936;2023-04-02T15:38:20;101786.03;;;13.07;100.00
22333;BME280;11334;36.986;-121.936;2023-04-02T15:40:56;101782.66;;;13.15;100.00
22333;BME280;11334;36.986;-121.936;2023-04-02T15:46:25;101796.25;;;13.29;100.00
22333;BME280;11334;36.986;-121.936;2023-04-02T15:49:20;101791.13;;;13.27;100.00
22333;BME280;11334;36.986;-121.936;2023-04-02T15:57:48;101779.56;;;13.36;100.00
22333;BME280;11334;36.986;-121.936;2023-04-02T16:00:20;101783.16;;;13.45;96.61
22333;BME280;11334;36.986;-121.936;2023-04-02T16:05:40;101781.41;;;13.53;91.39
22333;BME280;11334;36.986;-121.936;2023-04-02T16:10:49;101773.97;;;13.57;91.87
22333;BME280;11334;36.986;-121.936;2023-04-02T16:15:59;101777.69;;;13.63;91.33
22333;BME280;11334;36.986;-121.936;2023-04-02T16:18:53;101780.47;;;13.71;92.90
22333;BME280;11334;36.986;-121.936;2023-04-02T16:21:31;101776.19;;;13.78;89.67
22333;BME280;11334;36.986;-121.936;2023-04-02T16:23:58;101776.88;;;13.80;89.09
22333;BME280;11334;36.986;-121.936;2023-04-02T16:32:32;101770.25;;;14.19;89.60
22333;BME280;11334;36.986;-121.936;2023-04-02T16:35:23;101769.75;;;14.40;87.91
22333;BME280;11334;36.986;-121.936;2023-04-02T16:37:57;101756.16;;;14.51;89.18
22333;BME280;11334;36.986;-121.936;2023-04-02T16:40:40;101759.38;;;14.62;87.94
22333;BME280;11334;36.986;-121.936;2023-04-02T16:44:01;101762.00;;;14.80;81.87